Data for 07/18/2010

Time Sea-Level Adjusted Pressure Absolute Pressure Temperature Relative Humidity Dew Point   
(mb) (inHg) (mb) (inHg) (C) (F) (%) (C) (F)
00:05 1020 30.12 849 25.07 20.3 68.5 36 5 40.9
00:10 1020 30.12 849 25.07 20.2 68.4 37 5.1 41.1
00:15 1020 30.12 849 25.07 20 68.1 37 5.1 41.2
00:20 1020 30.12 849 25.07 20 68 37 4.9 40.7
00:25 1020 30.12 849 25.07 20 67.9 37 5 40.9
00:30 1020 30.12 849 25.07 19.9 67.9 37 5 40.9
00:35 1020 30.12 849 25.07 19.9 67.7 37 5 41.1
00:40 1020 30.12 849 25.07 19.7 67.4 38 5.2 41.3
00:45 1020 30.12 849 25.07 19.5 67.1 38 5.1 41.3
00:50 1020 30.12 849 25.07 19.4 66.9 39 5.2 41.4
00:55 1020 30.12 849 25.07 19.3 66.8 39 5.1 41.1
01:00 1020 30.12 849 25.07 19.2 66.6 40 5.3 41.5
01:05 1020 30.12 849 25.07 19.1 66.3 40 5.3 41.6
01:10 1020 30.12 849 25.07 18.9 66.1 40 5.3 41.5
01:15 1020 30.12 849 25.07 18.9 65.9 40 5.2 41.3
01:20 1020 30.12 849 25.07 18.9 66 40 5.1 41.1
01:25 1020 30.12 849 25.07 19 66.1 40 5.1 41.2
01:30 1020 30.12 849 25.07 18.9 66 40 5.3 41.5
01:35 1020 30.12 849 25.07 18.8 65.8 40 5.1 41.3
01:40 1020 30.12 849 25.07 18.8 65.8 40 5.2 41.3
01:45 1020 30.12 850 25.1 18.7 65.6 41 5.2 41.4
01:50 1020 30.12 850 25.1 18.7 65.6 41 5.2 41.4
01:55 1020 30.12 850 25.1 18.6 65.6 41 5.3 41.5
02:00 1020 30.12 850 25.1 18.6 65.5 41 5.2 41.4
02:05 1020 30.12 850 25.1 18.6 65.4 41 5.3 41.6
02:10 1020 30.12 850 25.1 18.4 65.1 42 5.4 41.6
02:15 1020 30.12 850 25.1 18.3 65 42 5.3 41.5
02:20 1020 30.12 850 25.1 18.3 65 42 5.3 41.6
02:25 1020 30.12 850 25.1 18.3 65 42 5.2 41.3
02:30 1020 30.12 849 25.07 18.4 65.1 42 5.4 41.7
02:35 1020 30.12 850 25.1 18.3 65 42 5.2 41.4
02:40 1020 30.12 850 25.1 18.3 64.9 43 5.4 41.8
02:45 1020 30.12 850 25.1 18.1 64.5 43 5.4 41.7
02:50 1020 30.12 850 25.1 18 64.4 43 5.4 41.8
02:55 1020 30.12 850 25.1 18 64.3 43 5.5 41.8
03:00 1020 30.12 850 25.1 17.9 64.1 44 5.5 41.8
03:05 1020 30.12 849 25.07 17.8 64.1 44 5.5 41.8
03:10 1020 30.12 849 25.07 17.7 63.9 44 5.5 41.9
03:15 1020 30.12 849 25.07 17.6 63.6 45 5.6 42
03:20 1020 30.12 849 25.07 17.6 63.6 44 5.4 41.8
03:25 1020 30.12 850 25.1 17.5 63.5 45 5.5 42
03:30 1020 30.12 849 25.07 17.4 63.4 45 5.6 42.1
03:35 1020 30.12 849 25.07 17.4 63.2 45 5.5 41.9
03:40 1020 30.12 849 25.07 17.3 63.1 46 5.6 42.1
03:45 1020 30.12 849 25.07 17.2 63 46 5.6 42.1
03:50 1020 30.12 849 25.07 17.2 62.9 46 5.5 41.9
03:55 1020 30.12 849 25.07 17.1 62.7 46 5.6 42.1
04:00 1020 30.12 849 25.07 16.9 62.4 47 5.8 42.4
04:05 1020 30.12 849 25.07 16.8 62.3 48 5.8 42.4
04:10 1020 30.12 849 25.07 16.5 61.8 49 5.8 42.5
04:15 1020 30.12 849 25.07 16.3 61.4 49 5.7 42.3
04:20 1020 30.12 849 25.07 16.4 61.5 49 5.6 42.2
04:25 1020 30.12 849 25.07 16.4 61.5 49 5.7 42.3
04:30 1020 30.12 849 25.07 16.3 61.4 49 5.7 42.2
04:35 1020 30.12 849 25.07 16.2 61.2 50 5.8 42.5
04:40 1020 30.12 849 25.07 16 60.8 50 5.7 42.3
04:45 1020 30.12 849 25.07 15.9 60.7 50 5.7 42.3
04:50 1020 30.12 849 25.07 16 60.7 50 5.8 42.4
04:55 1020 30.12 849 25.07 15.9 60.7 51 5.9 42.5
05:00 1020 30.12 849 25.07 15.8 60.5 51 5.9 42.6
05:05 1020 30.12 849 25.07 15.7 60.3 51 5.8 42.4
05:10 1020 30.12 849 25.07 15.8 60.5 51 5.7 42.3
05:15 1020 30.12 849 25.07 15.9 60.6 50 5.7 42.2
05:20 1020 30.12 849 25.07 16 60.7 50 5.7 42.2
05:25 1020 30.12 849 25.07 16.1 60.9 50 5.7 42.2
05:30 1020 30.12 849 25.07 16 60.9 50 5.7 42.3
05:35 1020 30.12 849 25.07 16.1 61 49 5.6 42.1
05:40 1019 30.09 849 25.07 16.1 60.9 50 5.7 42.2
05:45 1019 30.09 849 25.07 16 60.9 50 5.6 42.1
05:50 1019 30.09 849 25.07 16.1 61 49 5.6 42
05:55 1019 30.09 849 25.07 16.2 61.2 50 5.8 42.4
06:00 1019 30.09 849 25.07 16.1 61 50 5.7 42.3
06:05 1020 30.12 849 25.07 16 60.8 50 5.8 42.4
06:10 1020 30.12 849 25.07 15.9 60.6 51 5.9 42.7
06:15 1020 30.12 849 25.07 15.9 60.5 52 6 42.8
06:20 1020 30.12 849 25.07 15.9 60.5 56 7.3 45.1
06:25 1020 30.12 849 25.07 15.6 60.1 54 6.4 43.6
06:30 1020 30.12 849 25.07 15.5 59.9 53 6.1 43
06:35 1020 30.12 849 25.07 15.3 59.5 53 5.9 42.6
06:40 1020 30.12 849 25.07 15.5 59.8 53 6 42.8
06:45 1020 30.12 849 25.07 15.6 60.2 53 6.1 42.9
06:50 1020 30.12 849 25.07 15.6 60.1 54 6.3 43.3
06:55 1020 30.12 849 25.07 15.5 59.8 54 6.3 43.3
07:00 1020 30.12 849 25.07 15.6 60.2 53 6.3 43.3
07:05 1020 30.12 849 25.07 16.1 60.9 52 6.4 43.5
07:10 1020 30.12 849 25.07 16 60.9 52 6.4 43.5
07:15 1020 30.12 849 25.07 16 60.8 53 6.6 44
07:20 1020 30.12 849 25.07 16.2 61.1 52 6.4 43.5
07:25 1020 30.12 849 25.07 16.7 62 51 6.5 43.8
07:30 1020 30.12 849 25.07 16.5 61.7 51 6.5 43.8
07:35 1020 30.12 849 25.07 16.6 61.9 52 6.7 44.1
07:40 1020 30.12 849 25.07 16.9 62.4 50 6.6 43.9
07:45 1020 30.12 849 25.07 17.1 62.8 53 7.6 45.7
07:50 1020 30.12 849 25.07 17.5 63.5 49 6.8 44.3
07:55 1020 30.12 849 25.07 17.9 64.2 48 6.8 44.3
08:00 1020 30.12 849 25.07 17.7 63.9 49 7 44.6
08:05 1020 30.12 849 25.07 17.5 63.5 51 7.5 45.5
08:10 1020 30.12 849 25.07 17.8 64.1 50 7.5 45.5
08:15 1020 30.12 849 25.07 18.2 64.7 51 8 46.4
08:20 1020 30.12 849 25.07 18.5 65.3 47 7.1 44.8
08:25 1020 30.12 849 25.07 18.7 65.6 48 7.5 45.5
08:30 1020 30.12 849 25.07 19.4 66.9 44 7 44.5
08:35 1020 30.12 849 25.07 19.4 67 44 7 44.6
08:40 1020 30.12 849 25.07 20 67.9 44 7.3 45.2
08:45 1020 30.12 849 25.07 19.8 67.7 43 7.1 44.7
08:50 1020 30.12 849 25.07 19.9 67.9 43 7 44.6
08:55 1020 30.12 849 25.07 20.5 68.8 40 6.5 43.7
09:00 1020 30.12 849 25.07 19.6 67.3 42 6.7 44
09:05 1020 30.12 849 25.07 20.3 68.5 42 7.1 44.8
09:10 1020 30.12 849 25.07 20.5 68.9 43 7.6 45.7
09:15 1020 30.12 849 25.07 21.1 70 41 7.5 45.5
09:20 1020 30.12 849 25.07 21.4 70.6 40 7.5 45.4
09:25 1020 30.12 849 25.07 21.6 70.9 39 7.4 45.3
09:30 1020 30.12 849 25.07 22.2 71.9 39 7.7 45.8
09:35 1020 30.12 849 25.07 21.7 71 40 7.6 45.6
09:40 1019 30.09 849 25.07 21.7 71 39 7.3 45.2
09:45 1019 30.09 849 25.07 21.9 71.4 38 7 44.7
09:50 1019 30.09 849 25.07 22.3 72.2 36 6.9 44.3
09:55 1019 30.09 849 25.07 23 73.4 37 7.6 45.6
10:00 1019 30.09 849 25.07 23.6 74.5 34 6.9 44.4
10:05 1019 30.09 849 25.07 24.1 75.3 33 7.2 45
10:10 1019 30.09 849 25.07 24.2 75.5 32 6.4 43.6
10:15 1019 30.09 848 25.04 23.9 75.1 32 6.5 43.8
10:20 1019 30.09 848 25.04 23.5 74.3 33 6.7 44
10:25 1019 30.09 848 25.04 23.3 74 33 6.5 43.8
10:30 1019 30.09 848 25.04 23.8 74.9 33 7 44.5
10:35 1019 30.09 848 25.04 24 75.1 33 7 44.6
10:40 1019 30.09 848 25.04 23.6 74.4 36 8 46.5
10:45 1019 30.09 848 25.04 23.4 74 34 6.9 44.5
10:50 1019 30.09 848 25.04 24 75.2 38 9 48.3
10:55 1019 30.09 848 25.04 23.4 74.2 38 8.3 47
11:00 1019 30.09 848 25.04 23 73.3 38 8.1 46.6
11:05 1019 30.09 848 25.04 22.9 73.3 37 7.8 46
11:10 1019 30.09 848 25.04 24.3 75.7 35 8.2 46.7
11:15 1019 30.09 848 25.04 24.6 76.3 34 8.1 46.6
11:20 1019 30.09 848 25.04 24.4 75.9 35 8.2 46.8
11:25 1019 30.09 848 25.04 24.6 76.3 33 7.5 45.4
11:30 1019 30.09 848 25.04 24.9 76.7 35 8.7 47.7
11:35 1019 30.09 848 25.04 24.9 76.9 31 6.9 44.4
11:40 1019 30.09 848 25.04 25.8 78.4 30 7.2 44.9
11:45 1019 30.09 848 25.04 25.6 78 30 6.9 44.4
11:50 1019 30.09 848 25.04 26.6 79.9 28 6.9 44.5
11:55 1019 30.09 848 25.04 27.2 80.9 30 8.2 46.7
12:00 1019 30.09 848 25.04 26.5 79.6 28 6.5 43.7
12:05 1018 30.06 848 25.04 27.3 81.2 28 7.3 45.1
12:10 1018 30.06 848 25.04 27.1 80.7 30 8.1 46.6
12:15 1018 30.06 848 25.04 26.3 79.4 29 7.2 45
12:20 1018 30.06 848 25.04 27.1 80.7 27 7 44.6
12:25 1018 30.06 847 25.01 26.3 79.3 29 7.3 45.2
12:30 1018 30.06 847 25.01 26.5 79.8 27 6.1 42.9
12:35 1018 30.06 847 25.01 27.2 81 26 6.2 43.2
12:40 1018 30.06 847 25.01 27.4 81.3 25 6.1 43
12:45 1018 30.06 847 25.01 27.5 81.6 27 6.9 44.5
12:50 1018 30.06 847 25.01 27.4 81.4 25 5.9 42.6
12:55 1018 30.06 847 25.01 28 82.5 24 6.2 43.1
13:00 1018 30.06 847 25.01 28.2 82.7 26 7.2 44.9
13:05 1018 30.06 847 25.01 27.9 82.3 25 6.4 43.5
13:10 1018 30.06 847 25.01 28.8 83.9 25 7.1 44.8
13:15 1018 30.06 847 25.01 29.2 84.5 23 6.5 43.8
13:20 1018 30.06 847 25.01 28.4 83.2 25 6.7 44.1
13:25 1017 30.03 847 25.01 28.6 83.6 23 6 42.8
13:30 1017 30.03 847 25.01 29 84.2 24 6.6 43.8
13:35 1017 30.03 847 25.01 29.1 84.4 21 4.7 40.5
13:40 1017 30.03 847 25.01 29.5 85 20 4.6 40.3
13:45 1017 30.03 846 24.98 29.2 84.5 22 5.4 41.6
13:50 1017 30.03 846 24.98 29.7 85.4 21 5.2 41.3
13:55 1017 30.03 846 24.98 29.4 85 21 5.5 41.9
14:00 1017 30.03 846 24.98 29.2 84.5 20 4.1 39.5
14:05 1017 30.03 846 24.98 29.1 84.4 20 4 39.3
14:10 1017 30.03 846 24.98 29 84.2 20 4.3 39.7
14:15 1017 30.03 846 24.98 29.2 84.6 18 3 37.3
14:20 1017 30.03 846 24.98 29.3 84.8 19 3.3 37.9
14:25 1017 30.03 846 24.98 28.9 84 17 2 35.6
14:30 1017 30.03 846 24.98 29.1 84.3 17 2.2 36
14:35 1017 30.03 846 24.98 29.7 85.4 15 1.1 33.9
14:40 1017 30.03 846 24.98 28.6 83.4 15 -0.1 31.8
14:45 1017 30.03 846 24.98 28.8 83.8 15 0.2 32.3
14:50 1017 30.03 846 24.98 29.2 84.5 15 0.4 32.8
14:55 1017 30.03 846 24.98 29.4 84.9 15 0.5 32.9
15:00 1017 30.03 846 24.98 29.6 85.3 15 0.3 32.6
15:05 1017 30.03 846 24.98 29.3 84.8 16 1.2 34.2
15:10 1017 30.03 846 24.98 30.1 86.2 15 1.2 34.2
15:15 1017 30.03 846 24.98 30.2 86.4 16 2.2 35.9
15:20 1016 30 846 24.98 30.2 86.3 16 2.3 36.1
15:25 1016 30 846 24.98 30.4 86.7 15 1.6 34.9
15:30 1016 30 846 24.98 30.1 86.2 15 1.3 34.4
15:35 1016 30 846 24.98 29.7 85.4 15 0.6 33.1
15:40 1016 30 845 24.95 29.5 85.2 18 2.7 36.9
15:45 1016 30 845 24.95 30 86 15 1.3 34.3
15:50 1016 30 845 24.95 30.3 86.5 15 1.4 34.6
15:55 1016 30 845 24.95 30.3 86.6 15 1.1 34
16:00 1016 30 845 24.95 29.4 84.8 16 0.8 33.5
16:05 1016 30 845 24.95 29.6 85.3 15 0.5 32.9
16:10 1016 30 845 24.95 29.8 85.7 16 1.4 34.5
16:15 1016 30 845 24.95 31.1 87.9 15 1.3 34.4
16:20 1016 30 845 24.95 31 87.8 15 1.6 34.8
16:25 1016 30 845 24.95 31.4 88.5 15 1.8 35.2
16:30 1016 30 845 24.95 31.1 88 14 1.1 34.1
16:35 1016 30 845 24.95 31.5 88.7 14 1 33.9
16:40 1016 30 845 24.95 31.7 89 14 1.3 34.3
16:45 1016 30 845 24.95 31.5 88.6 14 1.1 33.9
16:50 1015 29.97 845 24.95 31.1 87.9 14 0.6 33
16:55 1015 29.97 845 24.95 30.5 86.9 15 0.9 33.5
17:00 1015 29.97 844 24.92 30.2 86.3 15 0.7 33.2
17:05 1015 29.97 844 24.92 30.1 86.2 15 0.6 33.2
17:10 1015 29.97 844 24.92 30 86.1 14 0.3 32.6
17:15 1015 29.97 844 24.92 30.6 87.1 14 0.9 33.6
17:20 1015 29.97 844 24.92 30.8 87.4 14 0.9 33.7
17:25 1015 29.97 844 24.92 30.8 87.5 14 0.9 33.6
17:30 1015 29.97 844 24.92 30.7 87.2 14 0.5 32.9
17:35 1015 29.97 844 24.92 30.5 86.9 14 0.6 33.1
17:40 1015 29.97 844 24.92 30.6 87 15 1.1 34
17:45 1015 29.97 844 24.92 30.7 87.2 14 0.8 33.5
17:50 1015 29.97 844 24.92 30.4 86.7 14 0.6 33.2
17:55 1015 29.97 844 24.92 30.7 87.3 14 0.7 33.3
18:00 1015 29.97 844 24.92 30.6 87 14 0.5 32.9
18:05 1015 29.97 844 24.92 30.6 87.1 15 1.1 34
18:10 1015 29.97 844 24.92 30.2 86.4 17 2.5 36.5
18:15 1015 29.97 845 24.95 29.3 84.7 16 0.9 33.7
18:20 1015 29.97 845 24.95 28.9 83.9 17 1.7 35.1
18:25 1015 29.97 845 24.95 29 84.1 18 2.2 36
18:30 1015 29.97 845 24.95 28.6 83.5 18 2.2 35.9
18:35 1015 29.97 845 24.95 28.6 83.4 18 2.1 35.7
18:40 1015 29.97 844 24.92 28.9 84 16 0.8 33.5
18:45 1015 29.97 844 24.92 28.9 83.9 17 1.8 35.2
18:50 1015 29.97 845 24.95 29.1 84.5 16 1.1 34
18:55 1015 29.97 844 24.92 28.9 84 16 1.1 34
19:00 1015 29.97 844 24.92 28.7 83.6 17 1.9 35.5
19:05 1015 29.97 844 24.92 28.6 83.6 16 0.9 33.7
19:10 1015 29.97 844 24.92 28 82.4 18 1.5 34.7
19:15 1015 29.97 844 24.92 27.9 82.2 19 2.6 36.7
19:20 1015 29.97 844 24.92 27.8 82 21 3.7 38.7
19:25 1015 29.97 844 24.92 27.5 81.6 22 4.4 39.8
19:30 1015 29.97 844 24.92 27 80.5 24 5 41
19:35 1015 29.97 844 24.92 26.5 79.6 25 4.9 40.8
19:40 1015 29.97 845 24.95 26.1 78.9 24 4.4 39.9
19:45 1015 29.97 845 24.95 25.8 78.4 23 3.6 38.4
19:50 1016 30 845 24.95 25.6 78.1 24 3.5 38.3
19:55 1016 30 845 24.95 25.5 77.9 24 3.6 38.5
20:00 1016 30 845 24.95 25.5 77.8 25 4.1 39.5
20:05 1016 30 845 24.95 25.4 77.7 25 4.3 39.8
20:10 1016 30 845 24.95 25.3 77.6 25 4 39.2
20:15 1016 30 845 24.95 25.2 77.3 25 4.2 39.5
20:20 1016 30 845 24.95 24.9 76.8 31 7 44.7
20:25 1016 30 845 24.95 23.5 74.3 36 7.8 46
20:30 1016 30 845 24.95 23 73.4 34 6.7 44
20:35 1016 30 845 24.95 23.2 73.8 32 5.7 42.3
20:40 1016 30 845 24.95 23.4 74.2 32 5.9 42.7
20:45 1016 30 845 24.95 23.3 73.9 31 5.4 41.8
20:50 1016 30 845 24.95 23.3 73.9 33 6.3 43.3
20:55 1016 30 845 24.95 23.4 74.1 31 5.3 41.6
21:00 1016 30 845 24.95 23.3 73.9 36 7.4 45.4
21:05 1016 30 845 24.95 23.1 73.6 32 5.5 41.9
21:10 1016 30 845 24.95 23.1 73.6 32 5.9 42.6
21:15 1016 30 845 24.95 22.9 73.3 30 4.6 40.3
21:20 1016 30 845 24.95 23.3 74 27 3.8 38.8
21:25 1016 30 845 24.95 23.5 74.4 31 5.5 41.9
21:30 1016 30 845 24.95 23.1 73.5 30 4.5 40.2
21:35 1016 30 846 24.98 22.7 72.9 39 8.2 46.8
21:40 1016 30 846 24.98 21.3 70.4 44 8.6 47.5
21:45 1016 30 846 24.98 20 67.9 47 8.5 47.3
21:50 1017 30.03 846 24.98 19.4 66.9 47 8.1 46.5
21:55 1017 30.03 846 24.98 19.7 67.5 43 6.8 44.3
22:00 1017 30.03 846 24.98 20.2 68.3 43 7.3 45.1
22:05 1017 30.03 846 24.98 20.1 68.2 42 7.1 44.8
22:10 1017 30.03 846 24.98 19.3 66.7 45 7.1 44.7
22:15 1017 30.03 846 24.98 18.7 65.6 45 6.7 44.1
22:20 1017 30.03 846 24.98 18.8 65.8 37 3.9 39
22:25 1017 30.03 846 24.98 20.2 68.3 35 4.5 40.1
22:30 1017 30.03 846 24.98 20.6 69.1 33 4.1 39.4
22:35 1017 30.03 846 24.98 20.5 68.9 38 5.7 42.3
22:40 1017 30.03 846 24.98 19.4 66.9 46 7.7 45.8
22:45 1017 30.03 846 24.98 18 64.3 46 6.3 43.3
22:50 1017 30.03 846 24.98 17.9 64.2 49 7.1 44.8
22:55 1017 30.03 846 24.98 17.8 64 48 6.6 43.9
23:00 1017 30.03 846 24.98 17.7 63.8 47 6.3 43.3
23:05 1017 30.03 846 24.98 18 64.5 44 5.8 42.4
23:10 1017 30.03 846 24.98 18 64.3 47 6.7 44
23:15 1017 30.03 846 24.98 17.7 63.9 43 5.2 41.3
23:20 1017 30.03 846 24.98 18.1 64.7 44 5.8 42.5
23:25 1017 30.03 846 24.98 18.8 65.9 42 5.8 42.5
23:30 1017 30.03 846 24.98 19.1 66.4 41 5.8 42.5
23:35 1017 30.03 846 24.98 18.7 65.6 42 5.6 42.1
23:40 1017 30.03 847 25.01 18 64.3 46 6.2 43.1
23:45 1017 30.03 847 25.01 17.5 63.5 46 5.8 42.4
23:50 1017 30.03 847 25.01 17.5 63.6 46 6 42.7
23:55 1017 30.03 847 25.01 17.5 63.5 44 5.2 41.4
24:00 1018 30.06 847 25.01 17.5 63.5 44 5.2 41.4